Bay State Village, Massachusetts
Current Conditions -  °F | °C
As of 3:58 AM on Monday 20 Oct 2014 (Local Time) from KCEF Reporting Station
Clear Clear  
Wind Chill: 26°   Ceiling: Unl
Heat Index: 30°   Visibility: 10mi
Dew Point: 28°   Wind: 5mph
Humidity: 92%   Direction: 170°S
Pressure: 30.02"   Gusts: NA
Location:  42.3249°N, 72.6582°W
Report Text: KCEF 200758Z AUTO 17004KT 10SM CLR M01/M02 A3002 RMK AO2 SLP173 T10091020
Loading
Personal Weather Stations






























Interactive Weather Map
Tropical Storm Tracking
New forecast layout! Learn more

10-Day Weather Forecast

Advertisements
Track Severe Weather on mobile